Time;durP1;ratioP1;P1;durP2;ratioP2;P2;SDS_P1;SDS_P2;PMS_P1;PMS_P2;Temp;Humidity;BMP_temperature;BMP_pressure;BME280_temperature;BME280_humidity;BME280_pressure;Samples;Min_cycle;Max_cycle;Signal;HPM_P1;HPM_P2
2022/07/17 00:00:23;;;;;;;2.90;2.17;;;;;;;26.79;44.05;95287.75;4989781;28;20527;-68
2022/07/17 00:02:49;;;;;;;3.97;2.30;;;;;;;26.95;43.93;95319.63;5007959;28;20033;-68
2022/07/17 00:05:14;;;;;;;4.47;2.05;;;;;;;26.76;43.73;95288.09;5007282;28;20030;-68
2022/07/17 00:07:40;;;;;;;2.60;1.90;;;;;;;26.90;43.66;95326.69;5007544;28;20138;-67
2022/07/17 00:10:06;;;;;;;3.83;2.00;;;;;;;26.88;44.07;95329.19;5008273;28;20021;-67
2022/07/17 00:12:32;;;;;;;4.50;2.20;;;;;;;26.85;44.41;95326.78;5008021;28;20734;-69
2022/07/17 00:14:57;;;;;;;3.25;2.00;;;;;;;26.80;44.53;95320.13;5007969;28;20030;-68
2022/07/17 00:17:23;;;;;;;3.15;2.08;;;;;;;26.84;44.41;95323.28;5007888;28;20177;-68
2022/07/17 00:19:49;;;;;;;3.55;2.10;;;;;;;26.76;44.00;95320.97;5007646;28;20081;-68
2022/07/17 00:22:14;;;;;;;4.28;2.10;;;;;;;26.81;44.05;95334.56;5006530;28;20049;-63
2022/07/17 00:24:40;;;;;;;2.63;2.08;;;;;;;26.85;43.90;95346.69;5006223;28;20026;-62
2022/07/17 00:27:06;;;;;;;3.30;2.22;;;;;;;26.77;44.25;95323.91;5005167;28;20639;-66
2022/07/17 00:29:31;;;;;;;2.90;1.85;;;;;;;26.76;44.10;95316.94;5006396;28;20539;-64
2022/07/17 00:31:57;;;;;;;2.50;2.13;;;;;;;26.75;43.84;95327.69;5006471;28;20038;-64
2022/07/17 00:34:22;;;;;;;3.05;2.25;;;;;;;26.61;44.33;95309.75;5006148;28;20484;-65
2022/07/17 00:36:48;;;;;;;3.28;2.42;;;;;;;26.50;44.06;95288.00;4972431;28;20454;-63
2022/07/17 00:39:13;;;;;;;2.95;2.15;;;;;;;26.62;43.88;95305.75;5006245;28;20018;-62
2022/07/17 00:41:39;;;;;;;2.85;1.95;;;;;;;26.74;44.04;95326.22;5006677;28;20089;-62
2022/07/17 00:44:05;;;;;;;3.95;2.25;;;;;;;26.70;44.34;95336.75;5006287;28;20022;-65
2022/07/17 00:46:31;;;;;;;2.67;2.00;;;;;;;26.72;44.20;95331.47;5005780;28;20037;-63
2022/07/17 00:48:56;;;;;;;4.00;2.00;;;;;;;26.76;44.10;95342.88;5005900;28;20604;-63
2022/07/17 00:51:22;;;;;;;2.70;2.10;;;;;;;26.56;44.32;95324.25;4988263;28;20036;-65
2022/07/17 00:53:47;;;;;;;3.03;1.85;;;;;;;26.72;44.07;95336.97;5008150;28;20022;-69
2022/07/17 00:56:13;;;;;;;2.63;2.40;;;;;;;26.69;44.00;95348.97;5007054;28;20100;-67
2022/07/17 00:58:38;;;;;;;2.42;2.03;;;;;;;26.51;43.94;95325.09;5006279;28;20034;-68
2022/07/17 01:01:06;;;;;;;3.63;1.98;;;;;;;26.54;43.73;95326.78;4985785;28;20111;-67
2022/07/17 01:03:32;;;;;;;3.33;2.15;;;;;;;26.69;43.90;95349.69;5002658;28;20079;-68
2022/07/17 01:05:57;;;;;;;2.42;2.08;;;;;;;26.67;43.93;95346.03;4988710;28;20033;-68
2022/07/17 01:08:22;;;;;;;3.55;1.98;;;;;;;26.67;43.66;95356.97;5006089;28;20061;-68
2022/07/17 01:10:48;;;;;;;2.85;2.10;;;;;;;26.57;44.08;95344.94;5006094;28;20642;-66
2022/07/17 01:13:13;;;;;;;3.45;2.10;;;;;;;26.54;44.05;95340.50;5006278;28;20048;-67
2022/07/17 01:15:39;;;;;;;5.07;2.00;;;;;;;26.49;43.75;95327.63;4988574;28;20026;-68
2022/07/17 01:18:08;;;;;;;4.35;2.00;;;;;;;26.65;43.83;95354.00;5005942;28;20021;-68
2022/07/17 01:20:35;;;;;;;3.13;1.90;;;;;;;26.48;43.85;95339.84;4988552;28;20026;-64
2022/07/17 01:23:01;;;;;;;3.05;2.05;;;;;;;26.45;43.64;95338.16;5005995;28;20732;-67
2022/07/17 01:25:26;;;;;;;2.97;2.03;;;;;;;26.61;43.95;95353.59;5005339;28;20030;-67
2022/07/17 01:27:52;;;;;;;2.75;1.92;;;;;;;26.54;43.98;95348.72;4986785;28;20037;-68
2022/07/17 01:30:17;;;;;;;3.25;2.05;;;;;;;26.40;43.47;95317.06;4988434;28;20049;-68
2022/07/17 01:32:43;;;;;;;4.28;2.00;;;;;;;26.47;43.49;95332.88;5005688;28;20524;-66
2022/07/17 01:35:09;;;;;;;4.22;2.28;;;;;;;26.49;43.77;95341.31;5004650;28;20081;-66
2022/07/17 01:37:35;;;;;;;3.13;1.90;;;;;;;26.50;43.72;95337.31;5005626;28;20030;-67
2022/07/17 01:40:00;;;;;;;2.85;2.00;;;;;;;26.54;43.76;95349.44;4988187;28;20033;-68
2022/07/17 01:42:26;;;;;;;3.35;1.85;;;;;;;26.41;43.70;95332.22;5005650;28;20485;-67
2022/07/17 01:44:52;;;;;;;4.50;1.90;;;;;;;26.54;43.50;95354.91;4987925;28;20026;-67
2022/07/17 01:47:17;;;;;;;3.90;1.95;;;;;;;26.51;43.26;95349.75;5005445;28;20073;-66
2022/07/17 01:49:47;;;;;;;2.30;2.00;;;;;;;26.54;43.56;95345.97;5005702;28;20077;-66
2022/07/17 01:52:12;;;;;;;2.65;1.77;;;;;;;26.44;43.28;95339.41;5005418;28;20065;-62
2022/07/17 01:54:39;;;;;;;4.90;1.92;;;;;;;26.28;44.34;95335.66;5004697;28;20073;-65
2022/07/17 01:57:04;;;;;;;4.25;2.28;;;;;;;26.29;45.59;95350.06;4986813;28;20041;-67
2022/07/17 01:59:30;;;;;;;5.20;2.13;;;;;;;26.07;46.28;95342.16;4986518;28;20026;-65
2022/07/17 02:01:55;;;;;;;7.30;2.90;;;;;;;25.95;46.40;95343.59;5004539;28;20619;-68
2022/07/17 02:04:20;;;;;;;5.55;2.80;;;;;;;25.99;46.82;95365.16;4979074;28;20029;-68
2022/07/17 02:06:46;;;;;;;7.45;2.53;;;;;;;25.84;47.33;95365.63;4999077;28;20500;-67
2022/07/17 02:09:11;;;;;;;3.83;2.33;;;;;;;25.71;47.67;95361.31;5005624;28;20032;-66
2022/07/17 02:11:37;;;;;;;4.05;2.10;;;;;;;25.57;47.36;95346.03;4976403;28;20061;-68
2022/07/17 02:14:02;;;;;;;2.90;2.33;;;;;;;25.56;46.86;95360.97;4987671;28;20026;-63
2022/07/17 02:16:28;;;;;;;4.05;2.40;;;;;;;25.52;46.15;95361.25;5004680;28;20097;-64
2022/07/17 02:18:53;;;;;;;4.25;2.20;;;;;;;25.43;46.14;95358.13;5004433;28;20033;-58
2022/07/17 02:21:19;;;;;;;3.13;2.15;;;;;;;25.23;47.20;95338.72;5004301;28;20038;-62
2022/07/17 02:23:44;;;;;;;3.85;2.38;;;;;;;25.30;46.88;95360.03;5003780;28;20025;-61
2022/07/17 02:26:10;;;;;;;3.40;2.10;;;;;;;25.19;47.76;95355.41;5003926;28;20030;-62
2022/07/17 02:28:35;;;;;;;2.53;2.00;;;;;;;25.13;47.43;95357.47;5004125;28;20440;-62
2022/07/17 02:31:01;;;;;;;3.55;2.22;;;;;;;24.99;48.00;95341.44;5003352;28;20504;-62
2022/07/17 02:33:27;;;;;;;5.10;2.10;;;;;;;24.98;48.08;95346.16;5003696;28;20489;-61
2022/07/17 02:35:52;;;;;;;3.00;2.00;;;;;;;24.90;47.54;95344.50;5004299;28;20240;-67
2022/07/17 02:38:18;;;;;;;3.22;2.25;;;;;;;24.79;48.45;95338.41;5004515;28;20028;-65
2022/07/17 02:40:43;;;;;;;3.85;2.08;;;;;;;24.78;47.83;95347.84;5005055;28;20354;-64
2022/07/17 02:43:09;;;;;;;3.72;2.30;;;;;;;24.78;48.05;95353.31;5004799;28;20025;-64
2022/07/17 02:45:34;;;;;;;4.80;2.45;;;;;;;24.62;48.61;95351.44;5003708;28;20033;-67
2022/07/17 02:48:00;;;;;;;4.65;2.40;;;;;;;24.58;48.78;95345.53;5004658;28;20471;-64
2022/07/17 02:50:25;;;;;;;3.15;2.40;;;;;;;24.52;49.20;95353.03;5004485;28;20018;-67
2022/07/17 02:52:51;;;;;;;3.80;2.30;;;;;;;24.38;48.53;95340.50;5004366;28;20037;-68
2022/07/17 02:55:17;;;;;;;5.07;2.70;;;;;;;24.49;48.88;95373.16;5004117;28;20018;-67
2022/07/17 02:57:42;;;;;;;3.85;2.35;;;;;;;24.21;48.82;95339.81;5004548;28;20389;-66
2022/07/17 03:00:10;;;;;;;3.58;2.33;;;;;;;24.38;48.71;95378.72;5004235;28;20030;-66
2022/07/17 03:02:35;;;;;;;5.97;2.03;;;;;;;24.41;49.50;95391.34;5004569;28;20408;-67
2022/07/17 03:05:01;;;;;;;5.13;2.17;;;;;;;24.22;48.56;95371.34;5004550;28;20108;-66
2022/07/17 03:07:26;;;;;;;4.13;2.28;;;;;;;24.21;49.58;95378.03;5004390;28;20346;-67
2022/07/17 03:09:52;;;;;;;3.95;2.60;;;;;;;24.25;49.83;95389.41;5004344;28;20010;-68
2022/07/17 03:12:17;;;;;;;4.40;2.80;;;;;;;24.13;49.97;95377.09;5004497;28;20042;-65
2022/07/17 03:14:42;;;;;;;6.75;3.05;;;;;;;24.17;49.72;95393.19;5004531;28;20068;-60
2022/07/17 03:17:08;;;;;;;5.45;3.22;;;;;;;24.06;49.49;95394.00;5004678;28;20041;-65
2022/07/17 03:19:34;;;;;;;4.97;3.08;;;;;;;24.04;50.26;95384.84;5003793;28;20397;-65
2022/07/17 03:21:59;;;;;;;5.85;3.10;;;;;;;24.03;49.83;95400.44;4977007;28;20109;-65
2022/07/17 03:24:25;;;;;;;7.07;3.60;;;;;;;23.81;50.80;95377.25;5004166;28;20056;-62
2022/07/17 03:26:51;;;;;;;5.53;3.47;;;;;;;23.95;51.09;95394.06;5003955;28;20084;-63
2022/07/17 03:29:17;;;;;;;9.80;3.90;;;;;;;23.90;51.36;95400.28;4989712;28;20038;-62
2022/07/17 03:31:43;;;;;;;7.97;3.60;;;;;;;23.84;50.24;95398.06;5004400;28;20157;-63
2022/07/17 03:34:09;;;;;;;5.68;3.25;;;;;;;23.86;50.23;95418.91;5003888;28;20046;-64
2022/07/17 03:36:34;;;;;;;8.65;4.65;;;;;;;23.81;51.18;95415.44;5004249;28;20484;-65
2022/07/17 03:39:00;;;;;;;10.60;4.88;;;;;;;23.59;50.39;95393.69;4986519;28;20018;-66
2022/07/17 03:41:26;;;;;;;9.10;4.32;;;;;;;23.80;51.43;95427.63;5004252;28;21386;-66
2022/07/17 03:43:52;;;;;;;10.45;5.10;;;;;;;23.73;51.63;95425.41;5004084;28;20006;-62
2022/07/17 03:46:18;;;;;;;9.65;4.43;;;;;;;23.71;51.58;95422.44;5003586;28;20037;-64
2022/07/17 03:48:43;;;;;;;11.23;4.53;;;;;;;-140.79;100.00;63287.88;4986461;28;20039;-68
2022/07/17 03:51:09;;;;;;;6.63;3.50;;;;;;;-140.79;100.00;63287.88;5004074;28;20088;-65
2022/07/17 03:53:34;;;;;;;6.53;3.40;;;;;;;-140.79;0.00;118401.53;5004090;28;20473;-67
2022/07/17 03:56:00;;;;;;;5.47;3.20;;;;;;;23.71;51.58;95422.44;5006046;28;20145;-65
2022/07/17 03:58:25;;;;;;;5.95;3.33;;;;;;;23.33;51.13;95387.81;5008918;28;20063;-66
2022/07/17 04:00:50;;;;;;;6.25;3.55;;;;;;;23.56;51.65;95433.59;5010090;28;20028;-65
2022/07/17 04:03:16;;;;;;;4.50;3.10;;;;;;;23.29;50.79;95392.81;5007590;28;20512;-63
2022/07/17 04:05:41;;;;;;;9.30;3.30;;;;;;;23.55;50.57;95436.84;5006776;28;20100;-66
2022/07/17 04:08:07;;;;;;;6.57;3.20;;;;;;;23.61;50.58;95445.75;5007496;28;20026;-67
2022/07/17 04:10:32;;;;;;;4.50;2.78;;;;;;;23.57;51.05;95434.34;5007806;28;20030;-64
2022/07/17 04:12:58;;;;;;;4.40;2.90;;;;;;;23.64;51.63;95444.75;5007939;28;20464;-63
2022/07/17 04:18:08;;;;;;;4.13;2.78;;;;;;;23.62;50.95;95458.13;4993631;28;20041;-67
2022/07/17 04:20:33;;;;;;;3.97;2.38;;;;;;;23.68;50.09;95467.06;5007116;28;20053;-67
2022/07/17 04:22:59;;;;;;;4.65;2.80;;;;;;;23.49;50.86;95433.38;5007388;28;20157;-63
2022/07/17 04:25:25;;;;;;;3.00;2.50;;;;;;;23.70;49.90;95464.59;5007000;28;20779;-66
2022/07/17 04:27:50;;;;;;;3.50;2.67;;;;;;;23.68;50.25;95467.06;5006778;28;20129;-64
2022/07/17 04:30:15;;;;;;;4.72;2.58;;;;;;;23.71;49.36;95460.63;5007031;28;20055;-67
2022/07/17 04:32:41;;;;;;;3.83;2.47;;;;;;;23.73;49.33;95458.13;5007008;28;20485;-67
2022/07/17 04:35:07;;;;;;;4.43;2.35;;;;;;;23.69;49.32;95457.63;5006737;28;20053;-63
2022/07/17 04:37:32;;;;;;;4.72;3.05;;;;;;;23.47;49.25;95414.06;5006965;28;20032;-61
2022/07/17 04:39:57;;;;;;;5.53;2.78;;;;;;;23.82;49.56;95466.75;5006716;28;20037;-66
2022/07/17 04:42:23;;;;;;;3.95;2.30;;;;;;;23.75;49.44;95450.19;5007128;28;20034;-64
2022/07/17 04:44:48;;;;;;;4.43;2.65;;;;;;;23.87;49.57;95477.66;5006061;28;20033;-65
2022/07/17 04:47:14;;;;;;;3.40;2.67;;;;;;;23.90;48.94;95471.22;4990473;28;20030;-62
2022/07/17 04:49:39;;;;;;;4.05;2.70;;;;;;;23.85;49.57;95465.03;4987982;28;20026;-67
2022/07/17 04:52:05;;;;;;;3.60;2.42;;;;;;;23.92;49.69;95471.44;4991727;28;20026;-67
2022/07/17 04:54:30;;;;;;;4.63;2.60;;;;;;;23.94;48.90;95466.22;4989003;28;20112;-65
2022/07/17 04:56:56;;;;;;;5.72;2.70;;;;;;;24.08;48.33;95481.56;4990959;28;20521;-66
2022/07/17 04:59:21;;;;;;;4.00;2.75;;;;;;;24.14;48.65;95487.72;4985615;28;20035;-63
2022/07/17 05:01:47;;;;;;;4.45;3.00;;;;;;;23.90;49.11;95452.13;4987948;28;20030;-63
2022/07/17 05:04:12;;;;;;;2.80;2.47;;;;;;;24.21;48.31;95487.19;4985996;28;20022;-63
2022/07/17 05:06:37;;;;;;;6.00;2.70;;;;;;;24.22;49.11;95499.59;4985593;28;20061;-65
2022/07/17 05:09:03;;;;;;;3.33;2.55;;;;;;;24.29;48.16;95501.81;4988463;28;20018;-61
2022/07/17 05:11:28;;;;;;;4.93;3.08;;;;;;;24.29;48.22;95510.00;4985184;28;20052;-67
2022/07/17 05:13:54;;;;;;;4.88;2.65;;;;;;;23.43;48.48;95387.03;4986863;28;20062;-63
2022/07/17 05:16:20;;;;;;;3.78;2.30;;;;;;;24.26;46.96;95494.63;5003046;28;20018;-65
2022/07/17 05:18:45;;;;;;;5.20;2.40;;;;;;;24.33;47.29;95494.13;4988228;28;20034;-64
2022/07/17 05:21:11;;;;;;;4.05;2.25;;;;;;;24.23;46.09;95483.97;4987575;28;20101;-67
2022/07/17 05:23:36;;;;;;;3.78;2.72;;;;;;;24.31;43.43;95485.66;4970177;28;20031;-65
2022/07/17 05:26:02;;;;;;;4.50;2.20;;;;;;;24.41;44.12;95484.16;5005460;28;20038;-69
2022/07/17 05:28:27;;;;;;;4.25;2.40;;;;;;;24.56;43.90;95500.97;5005030;28;20516;-65
2022/07/17 05:30:53;;;;;;;3.65;1.88;;;;;;;24.68;44.68;95502.34;5005997;28;20029;-66
2022/07/17 05:33:19;;;;;;;3.33;2.05;;;;;;;24.74;43.31;95505.78;5005463;28;20049;-70
2022/07/17 05:35:44;;;;;;;3.28;2.28;;;;;;;24.81;43.64;95505.25;5005431;28;20512;-66
2022/07/17 05:38:10;;;;;;;4.47;2.50;;;;;;;24.89;42.83;95513.16;5004209;28;20053;-69
2022/07/17 05:40:36;;;;;;;2.95;2.00;;;;;;;24.98;43.16;95503.91;4999294;28;20089;-65
2022/07/17 05:43:01;;;;;;;4.30;2.30;;;;;;;25.08;41.00;95503.13;5004541;28;20033;-65
2022/07/17 05:45:27;;;;;;;3.55;2.00;;;;;;;25.17;41.82;95494.59;4998394;28;20029;-66
2022/07/17 05:47:52;;;;;;;4.43;2.20;;;;;;;25.36;41.13;95507.09;5004561;28;20029;-64
2022/07/17 05:50:18;;;;;;;3.30;2.00;;;;;;;25.54;40.60;95500.22;4997908;28;20390;-63
2022/07/17 05:52:43;;;;;;;4.03;1.92;;;;;;;25.69;40.31;95498.59;4984983;28;20010;-64
2022/07/17 05:55:09;;;;;;;2.45;1.85;;;;;;;25.60;39.19;95459.88;4987664;28;20032;-65
2022/07/17 05:57:34;;;;;;;3.30;2.03;;;;;;;25.98;39.09;95501.28;4985343;28;20017;-64
2022/07/17 06:00:00;;;;;;;4.57;2.10;;;;;;;26.07;38.96;95492.72;4984925;28;20054;-68
2022/07/17 06:02:25;;;;;;;3.40;2.08;;;;;;;26.08;38.64;95483.25;4985129;28;20022;-67
2022/07/17 06:04:52;;;;;;;3.72;1.90;;;;;;;26.20;38.11;95484.59;4993218;28;20042;-71
2022/07/17 06:07:17;;;;;;;4.28;2.33;;;;;;;26.58;38.42;95511.53;4996807;28;20045;-68
2022/07/17 06:09:43;;;;;;;3.70;2.03;;;;;;;26.75;38.52;95514.03;4993538;28;20665;-62
2022/07/17 06:12:08;;;;;;;3.25;2.10;;;;;;;26.61;38.56;95468.66;5003224;28;20497;-64
2022/07/17 06:14:34;;;;;;;2.47;1.70;;;;;;;26.97;37.99;95496.03;4998037;28;20030;-62
2022/07/17 06:16:59;;;;;;;3.08;2.00;;;;;;;27.25;37.86;95510.06;4991779;28;20088;-63
2022/07/17 06:19:25;;;;;;;3.33;2.00;;;;;;;27.30;38.16;95503.75;4982071;28;20437;-66
2022/07/17 06:21:50;;;;;;;3.80;2.30;;;;;;;27.45;37.26;95512.22;4999117;28;20034;-64
2022/07/17 06:24:16;;;;;;;3.33;1.73;;;;;;;27.63;37.24;95512.19;5000691;28;20022;-64
2022/07/17 06:26:41;;;;;;;3.20;2.03;;;;;;;27.62;37.30;95504.47;4997383;28;20030;-66
2022/07/17 06:29:07;;;;;;;3.03;2.30;;;;;;;27.62;36.47;95498.97;4990150;28;20018;-66
2022/07/17 06:31:32;;;;;;;3.60;2.00;;;;;;;27.91;36.61;95526.91;4989639;28;20030;-63
2022/07/17 06:33:58;;;;;;;3.83;2.38;;;;;;;27.88;36.71;95505.97;5002170;28;20084;-66
2022/07/17 06:36:23;;;;;;;3.90;2.20;;;;;;;27.84;36.70;95483.59;4988267;28;20037;-65
2022/07/17 06:38:48;;;;;;;3.42;2.15;;;;;;;28.21;36.83;95516.38;4996352;28;20025;-66
2022/07/17 06:41:14;;;;;;;3.30;2.15;;;;;;;28.33;37.39;95518.34;4992415;28;20053;-62
2022/07/17 06:43:39;;;;;;;3.60;2.10;;;;;;;28.36;36.69;95505.59;4990783;28;20038;-66
2022/07/17 06:46:05;;;;;;;4.82;2.08;;;;;;;28.51;36.65;95516.75;4990254;28;20030;-69
2022/07/17 06:48:30;;;;;;;3.65;2.20;;;;;;;28.63;36.04;95507.00;4991229;28;20480;-65
2022/07/17 06:50:56;;;;;;;2.95;2.00;;;;;;;28.72;36.44;95516.31;4969423;28;20033;-66
2022/07/17 06:53:21;;;;;;;3.53;2.10;;;;;;;28.73;35.60;95501.31;4996608;28;20650;-66
2022/07/17 06:55:47;;;;;;;5.78;2.53;;;;;;;28.90;34.87;95515.41;5006436;28;20018;-65
2022/07/17 06:58:12;;;;;;;4.85;2.35;;;;;;;28.95;34.80;95511.81;5002935;28;20037;-64
2022/07/17 07:00:38;;;;;;;4.55;2.28;;;;;;;28.95;35.36;95498.06;4987352;28;20049;-66
2022/07/17 07:03:04;;;;;;;3.65;2.20;;;;;;;29.00;35.21;95491.69;5005094;28;20021;-63
2022/07/17 07:05:29;;;;;;;4.93;2.17;;;;;;;29.29;35.34;95516.03;4992314;28;20034;-67
2022/07/17 07:07:55;;;;;;;5.22;2.40;;;;;;;29.23;34.85;95500.91;4989460;28;20035;-69
2022/07/17 07:10:20;;;;;;;3.75;2.20;;;;;;;29.39;34.75;95521.81;4991888;28;20048;-65
2022/07/17 07:12:46;;;;;;;5.25;2.08;;;;;;;29.50;34.94;95527.78;4986858;28;20025;-66
2022/07/17 07:15:12;;;;;;;3.80;2.28;;;;;;;29.50;34.81;95532.53;5003863;28;20428;-69
2022/07/17 07:17:37;;;;;;;3.75;2.10;;;;;;;29.49;34.24;95525.56;5003868;28;20038;-69
2022/07/17 07:20:04;;;;;;;4.22;2.17;;;;;;;29.55;34.44;95528.91;5005137;28;20037;-65
2022/07/17 07:22:30;;;;;;;3.70;2.15;;;;;;;29.62;34.00;95517.22;5004128;28;20065;-67
2022/07/17 07:24:56;;;;;;;3.63;2.20;;;;;;;29.63;33.97;95524.22;5004267;28;20034;-71
2022/07/17 07:27:21;;;;;;;4.75;2.42;;;;;;;29.74;34.05;95528.16;5003932;28;20501;-65
2022/07/17 07:29:46;;;;;;;3.38;2.03;;;;;;;29.81;34.32;95524.75;4975030;28;20030;-66
2022/07/17 07:32:12;;;;;;;3.63;2.33;;;;;;;29.81;33.98;95519.25;4988112;28;20026;-68
2022/07/17 07:34:37;;;;;;;2.75;2.03;;;;;;;29.81;33.91;95524.75;4987611;28;20042;-69
2022/07/17 07:37:03;;;;;;;3.38;2.20;;;;;;;29.91;34.03;95528.50;4990929;28;20045;-67
2022/07/17 07:39:28;;;;;;;4.15;2.30;;;;;;;29.94;34.18;95538.44;4997286;28;20029;-70
2022/07/17 07:41:54;;;;;;;4.75;2.25;;;;;;;29.97;33.88;95531.84;5001928;28;20033;-69
2022/07/17 07:44:19;;;;;;;3.53;2.10;;;;;;;30.07;34.23;95530.06;4980090;28;20034;-67
2022/07/17 07:46:45;;;;;;;3.42;2.10;;;;;;;30.02;33.92;95522.69;5006892;28;20030;-67
2022/07/17 07:49:10;;;;;;;3.60;2.10;;;;;;;29.91;33.73;95489.19;5007054;28;20477;-67
2022/07/17 07:51:36;;;;;;;3.35;2.00;;;;;;;29.94;32.75;95499.88;4999816;28;20026;-68
2022/07/17 07:54:01;;;;;;;3.92;2.10;;;;;;;30.13;33.19;95527.91;5000579;28;20040;-68
2022/07/17 07:56:27;;;;;;;2.70;2.20;;;;;;;30.15;33.40;95511.59;4999423;28;20588;-69
2022/07/17 07:58:52;;;;;;;3.85;1.98;;;;;;;30.07;33.45;95508.03;5002366;28;20063;-64
2022/07/17 08:01:18;;;;;;;2.85;1.83;;;;;;;30.11;33.72;95508.44;4994051;28;20280;-67
2022/07/17 08:03:43;;;;;;;2.35;2.00;;;;;;;30.12;32.78;95504.41;4997106;28;20143;-68
2022/07/17 08:06:09;;;;;;;3.58;2.05;;;;;;;30.38;33.23;95531.75;5003977;28;20033;-67
2022/07/17 08:08:34;;;;;;;3.13;2.08;;;;;;;30.33;33.30;95524.38;5004916;28;20026;-65
2022/07/17 08:11:00;;;;;;;3.00;2.20;;;;;;;30.47;32.93;95517.47;4997820;28;20034;-62
2022/07/17 08:13:25;;;;;;;3.25;2.25;;;;;;;30.41;32.53;95508.63;4991651;28;20018;-66
2022/07/17 08:15:51;;;;;;;3.00;2.00;;;;;;;30.39;32.87;95505.69;5005697;28;20028;-66
2022/07/17 08:18:16;;;;;;;5.15;2.28;;;;;;;30.24;32.42;95494.56;5006523;28;20040;-63
2022/07/17 08:20:43;;;;;;;3.55;2.70;;;;;;;30.57;32.66;95521.19;5006670;28;20487;-66
2022/07/17 08:23:08;;;;;;;3.33;2.10;;;;;;;30.57;32.62;95527.47;5004643;28;20037;-63
2022/07/17 08:25:34;;;;;;;4.35;2.40;;;;;;;30.66;32.48;95533.19;5003661;28;20026;-63
2022/07/17 08:27:59;;;;;;;3.88;2.25;;;;;;;30.59;32.16;95515.88;4989078;28;20489;-68
2022/07/17 08:30:25;;;;;;;2.60;2.20;;;;;;;30.65;32.19;95521.97;4993525;28;20017;-62
2022/07/17 08:32:51;;;;;;;4.22;2.42;;;;;;;30.68;32.82;95521.59;4990631;28;20194;-67
2022/07/17 08:35:16;;;;;;;2.95;2.17;;;;;;;30.64;32.86;95526.00;4990903;28;20047;-63
2022/07/17 08:37:43;;;;;;;3.03;2.20;;;;;;;30.58;32.93;95523.41;4989168;28;20030;-63
2022/07/17 08:40:18;;;;;;;3.85;2.22;;;;;;;30.74;32.73;95531.19;4989658;28;20780;-64
2022/07/17 08:42:43;;;;;;;3.85;2.20;;;;;;;30.84;32.26;95532.16;4987083;28;20038;-65
2022/07/17 08:45:11;;;;;;;4.25;2.20;;;;;;;30.89;32.45;95545.06;4972873;28;20038;-62
2022/07/17 08:47:37;;;;;;;4.57;2.20;;;;;;;30.84;32.60;95534.91;5008851;28;20033;-61
2022/07/17 08:50:03;;;;;;;4.25;2.22;;;;;;;30.85;32.60;95530.88;5006646;28;20033;-63
2022/07/17 08:52:29;;;;;;;2.60;2.10;;;;;;;30.83;32.79;95524.44;5007142;28;20022;-70
2022/07/17 08:54:54;;;;;;;3.20;2.08;;;;;;;30.81;31.96;95507.69;4996836;28;20053;-66
2022/07/17 08:57:20;;;;;;;2.92;2.03;;;;;;;31.01;32.09;95526.91;4978987;28;20029;-70
2022/07/17 08:59:47;;;;;;;3.55;2.10;;;;;;;30.97;32.50;95509.97;5005973;28;20278;-66
2022/07/17 09:02:13;;;;;;;4.22;2.08;;;;;;;30.90;31.95;95504.44;5005342;28;20048;-65
2022/07/17 09:04:39;;;;;;;4.90;2.25;;;;;;;30.93;32.06;95520.63;5007225;28;20436;-63
2022/07/17 09:07:05;;;;;;;2.70;1.92;;;;;;;30.91;30.81;95483.81;5005479;28;20068;-65
2022/07/17 09:09:30;;;;;;;3.30;1.90;;;;;;;31.07;30.95;95516.44;4988305;28;20018;-66
2022/07/17 09:11:58;;;;;;;3.92;1.92;;;;;;;31.03;31.32;95507.78;5006786;28;20038;-64
2022/07/17 09:14:24;;;;;;;3.95;2.10;;;;;;;31.16;30.98;95515.91;4988552;28;20084;-63
2022/07/17 09:17:02;;;;;;;2.10;1.60;;;;;;;31.04;31.54;95498.22;4987628;28;20029;-64
2022/07/17 09:19:31;;;;;;;3.72;2.00;;;;;;;30.99;31.95;95507.41;5005092;28;20022;-68
2022/07/17 09:22:18;;;;;;;5.93;2.28;;;;;;;31.02;32.05;95511.09;4988937;28;20021;-66
2022/07/17 09:24:48;;;;;;;2.25;1.80;;;;;;;30.94;32.52;95518.59;5013998;28;20065;-66
2022/07/17 09:27:35;;;;;;;2.58;1.70;;;;;;;30.95;32.25;95522.84;5005426;28;20042;-64
2022/07/17 09:30:09;;;;;;;2.80;2.00;;;;;;;30.91;32.63;95506.66;5004969;28;20521;-71
2022/07/17 09:32:37;;;;;;;4.38;2.38;;;;;;;30.88;32.37;95496.72;4987844;28;20053;-66
2022/07/17 09:35:04;;;;;;;2.92;2.30;;;;;;;30.96;32.69;95507.78;5005472;28;20539;-69
2022/07/17 09:37:30;;;;;;;2.90;1.67;;;;;;;30.92;32.56;95510.88;4988808;28;20026;-69
2022/07/17 09:39:56;;;;;;;2.92;1.90;;;;;;;30.90;32.31;95494.13;5005203;28;20084;-68
2022/07/17 09:42:23;;;;;;;2.83;2.00;;;;;;;30.99;32.44;95512.91;4993851;28;20156;-67
2022/07/17 09:44:59;;;;;;;2.47;2.00;;;;;;;30.92;32.34;95497.06;4992872;28;20034;-66
2022/07/17 09:47:25;;;;;;;5.30;2.10;;;;;;;30.93;32.09;95484.03;4985105;28;20026;-69
2022/07/17 09:49:53;;;;;;;3.50;2.00;;;;;;;31.11;32.25;95500.25;4981279;28;20069;-67
2022/07/17 09:52:19;;;;;;;3.38;2.03;;;;;;;31.10;32.09;95500.81;4974937;28;20032;-65
2022/07/17 09:54:44;;;;;;;3.08;2.10;;;;;;;30.90;32.27;95483.09;4956292;28;20433;-68
2022/07/17 09:57:10;;;;;;;2.40;1.90;;;;;;;31.10;31.58;95498.78;4987686;28;20026;-69
2022/07/17 09:59:35;;;;;;;3.78;2.17;;;;;;;31.20;31.21;95508.00;4963382;28;20762;-69
2022/07/17 10:02:01;;;;;;;4.18;1.95;;;;;;;31.10;31.08;95487.00;4970647;28;20041;-67
2022/07/17 10:04:27;;;;;;;2.47;1.73;;;;;;;31.27;30.86;95504.50;4971393;28;20084;-70
2022/07/17 10:06:53;;;;;;;3.15;2.00;;;;;;;31.29;30.77;95510.22;5003965;28;20030;-67
2022/07/17 10:09:18;;;;;;;3.08;2.20;;;;;;;31.12;30.91;95484.44;4983463;28;20108;-67
2022/07/17 10:11:44;;;;;;;2.60;1.80;;;;;;;31.35;30.61;95505.25;5006814;28;20450;-67
2022/07/17 10:14:11;;;;;;;2.90;1.90;;;;;;;31.36;31.02;95507.47;5005735;28;20026;-69
2022/07/17 10:16:38;;;;;;;3.00;2.10;;;;;;;31.25;31.03;95485.00;4987313;28;20149;-67
2022/07/17 10:19:14;;;;;;;3.30;1.85;;;;;;;31.28;31.24;95484.63;5005549;28;20026;-69
2022/07/17 10:21:39;;;;;;;3.60;2.03;;;;;;;31.50;30.95;95499.78;4989374;28;20098;-66
2022/07/17 10:24:06;;;;;;;2.35;1.77;;;;;;;31.31;30.93;95460.72;4987477;28;20101;-65
2022/07/17 10:26:38;;;;;;;4.30;1.80;;;;;;;31.50;30.90;95488.75;4994809;28;20034;-71
2022/07/17 10:29:07;;;;;;;2.40;1.77;;;;;;;31.49;30.84;95498.31;4993426;28;20022;-72
2022/07/17 10:31:34;;;;;;;3.78;2.15;;;;;;;31.43;30.35;95483.94;4991325;28;20026;-70
2022/07/17 10:34:04;;;;;;;4.05;1.90;;;;;;;31.48;30.14;95496.81;4995517;28;20109;-65
2022/07/17 10:36:41;;;;;;;3.72;2.30;;;;;;;31.47;29.98;95478.78;4990702;28;20520;-67
2022/07/17 10:39:17;;;;;;;3.95;1.98;;;;;;;31.47;30.93;95478.78;4994951;28;20033;-67
2022/07/17 10:41:43;;;;;;;4.60;1.95;;;;;;;31.60;30.99;95475.84;5003188;28;20026;-65
2022/07/17 10:44:08;;;;;;;3.65;2.10;;;;;;;31.61;30.69;95467.00;4978119;28;20022;-65
2022/07/17 10:46:34;;;;;;;3.53;2.33;;;;;;;31.25;30.72;95457.41;4987310;28;20895;-69
2022/07/17 10:49:03;;;;;;;3.55;1.90;;;;;;;31.23;31.49;95482.06;4971413;28;20034;-67
2022/07/17 10:51:29;;;;;;;2.88;1.80;;;;;;;30.93;31.48;95454.41;4990773;28;20032;-67
2022/07/17 10:53:58;;;;;;;2.50;1.88;;;;;;;30.86;31.92;95457.13;4984943;28;20753;-66
2022/07/17 10:56:24;;;;;;;;;;;;;;;30.90;32.16;95477.59;4984847;28;20026;-67
2022/07/17 10:58:50;;;;;;;2.97;1.95;;;;;;;30.61;32.86;95463.66;4984607;28;19918;-66
2022/07/17 11:01:21;;;;;;;2.40;1.90;;;;;;;30.42;33.04;95465.97;4986531;28;20428;-66
2022/07/17 11:03:52;;;;;;;2.10;1.90;;;;;;;30.10;33.46;95440.81;4986978;28;20050;-64
2022/07/17 11:06:19;;;;;;;2.83;1.80;;;;;;;29.86;33.71;95427.47;4986874;28;20030;-67
2022/07/17 11:08:58;;;;;;;2.90;1.88;;;;;;;29.88;34.08;95451.72;4992374;28;20027;-67
2022/07/17 11:11:39;;;;;;;2.83;1.90;;;;;;;29.87;33.92;95467.50;4991191;28;20018;-67
2022/07/17 11:14:16;;;;;;;3.38;1.95;;;;;;;29.62;34.38;95434.63;4994045;28;20140;-68
2022/07/17 11:16:48;;;;;;;2.95;1.77;;;;;;;29.72;34.43;95467.38;4993260;28;20104;-67
2022/07/17 11:19:42;;;;;;;3.47;2.03;;;;;;;29.61;34.89;95463.44;4990651;28;20110;-69
2022/07/17 11:22:10;;;;;;;2.33;1.90;;;;;;;29.44;35.31;95449.38;4988144;28;20077;-66
2022/07/17 11:24:42;;;;;;;2.67;1.80;;;;;;;29.41;35.33;95453.19;4973086;28;20073;-69
2022/07/17 11:27:10;;;;;;;2.38;1.95;;;;;;;29.35;35.47;95467.09;4994979;28;20026;-67
2022/07/17 11:29:39;;;;;;;2.13;1.73;;;;;;;29.08;35.96;95426.47;4996671;28;20127;-68
2022/07/17 11:32:05;;;;;;;2.00;1.70;;;;;;;29.20;35.28;95449.69;5002097;28;20021;-68